• Join FlightAware (Why Join?)
  • Login
  • US Flag 
08:32AM EDT


 

Airport Tracker/Info


-or-


 

Live Flight TrackerFlight Track Log ✈ N603JB ✈ 22-May-2012 ✈ KPBI - KJFK

Flight Track Log - Related Links

Times and Time Zones

All times are in EDT time to prevent confusion due to time zone crossing. See the N603JB flight status page for this flight to view local times or setup timezone preferences in your user account.

Time Position Orientation Groundspeed Altitude Reporting Facility
EDT Latitude Longitude Course Direction KTS MPH feet Rate Location/Type
06:06AM 26.6667 -80.0318 47° Northeast  Level FlightAware Approximate
06:07AM 26.7421 -79.9245 233° Southwest  Level FlightAware Approximate
06:07AM 26.6833 -80.0117 44° Northeast 205 236 2,700  Level Miami Center
06:12AM 26.9975 -79.6658 12° North 365 420 14,100 2,220 Climbing Miami Center
06:13AM 27.0961 -79.6425 15° North 374 430 16,100 1,920 Climbing Miami Center
06:14AM 27.2033 -79.6100 13° North 392 451 18,000 2,040 Climbing Miami Center
06:15AM 27.3311 -79.5781 14° North 420 483 20,200 1,740 Climbing Miami Center
06:16AM 27.4467 -79.5458 13° North 426 490 21,500 1,440 Climbing Miami Center
06:17AM 27.5683 -79.5133 14° North 433 498 23,100 1,260 Climbing Miami Center
06:18AM 27.6775 -79.4831 13° North 438 504 24,100 1,140 Climbing Miami Center
06:19AM 27.8222 -79.4442 14° North 463 533 25,400 960 Climbing Miami Center
06:20AM 27.9481 -79.4094 13° North 463 533 26,100 900 Climbing Miami Center
06:21AM 28.0867 -79.3725 13° North 479 551 27,200 960 Climbing Miami Center
06:22AM 28.2250 -79.3356 15° North 493 567 28,100 960 Climbing Miami Center
06:23AM 28.3656 -79.2939 13° North 505 581 29,200 1,020 Climbing Miami Center
06:24AM 28.5081 -79.2567 14° North 511 588 30,200 900 Climbing Miami Center
06:25AM 28.6508 -79.2147 13° North 516 594 31,100 1,260 Climbing Miami Center
06:26AM 28.7911 -79.1775 14° North 511 588 32,800 900 Climbing Miami Center
06:27AM 28.9294 -79.1378 15° North 511 588 33,000 420 Climbing Miami Center
06:28AM 29.0617 -79.0978 13° North 505 581 33,700 840 Climbing Miami Center
06:29AM 29.2081 -79.0603 15° North 511 588 34,700 600 Climbing Miami Center
06:30AM 29.3422 -79.0178 14° North 511 588 35,000 120 Climbing Miami Center
06:31AM 29.4847 -78.9778 23° Northeast 504 580 35,000  Level Miami Center
06:32AM 29.6108 -78.9156 14° North 510 587 35,000  Level Miami Center
06:33AM 29.7553 -78.8753 18° North 510 587 35,000  Level Miami Center
06:34AM 29.8917 -78.8231 18° North 510 587 35,000  Level Miami Center
06:35AM 30.0278 -78.7728 21° North 505 581 35,000  Level Miami Center
06:36AM 30.1431 -78.7219 18° North 498 573 35,000  Level Miami Center
06:58AM 32.9928 -77.6217 19° North 453 521 35,000  Level Washington Center
07:02AM 33.4967 -77.4169 18° North 470 541 35,000  Level Washington Center
07:03AM 33.6267 -77.3650 18° North 470 541 35,000  Level Washington Center
07:04AM 33.7506 -77.3153 19° North 470 541 35,000 -60 Level Washington Center
07:05AM 33.8744 -77.2653 18° North 470 541 34,900 -60 Descending Washington Center
07:06AM 34.0022 -77.2153 19° North 470 541 34,900  Level Washington Center
07:07AM 34.1281 -77.1625 19° North 470 541 35,000  Climbing Washington Center
07:08AM 34.2519 -77.1122 18° North 470 541 35,000  Level Washington Center
07:09AM 34.3778 -77.0617 19° North 470 541 35,000  Level Washington Center
07:10AM 34.5036 -77.0083 19° North 470 541 35,000  Level Washington Center
07:11AM 34.6272 -76.9575 18° North 470 541 35,000  Level Washington Center
07:12AM 34.7531 -76.9067 18° North 470 541 35,000  Level Washington Center
07:13AM 34.8786 -76.8556 18° North 470 541 35,000  Level Washington Center
07:14AM 35.0064 -76.8042 22° Northeast 470 541 35,000  Level Washington Center
07:15AM 35.1322 -76.7425 18° North 470 541 35,000  Level Washington Center
07:16AM 35.2558 -76.6933 19° North 472 543 35,000  Level Washington Center
07:17AM 35.3711 -76.6442 18° North 472 543 35,000 -60 Level Washington Center
07:18AM 35.4925 -76.5947 20° North 466 536 34,900 -60 Descending Washington Center
07:19AM 35.6181 -76.5400 19° North 466 536 34,900  Level Washington Center
07:20AM 35.7458 -76.4853 20° North 471 542 35,000  Climbing Washington Center
07:21AM 35.8714 -76.4303 18° North 471 542 35,000  Level Washington Center
07:22AM 35.9992 -76.3803 20° North 471 542 35,000  Level Washington Center
07:23AM 36.1225 -76.3247 20° North 471 542 35,000  Level Washington Center
07:24AM 36.2417 -76.2719 19° North 464 534 35,000  Level Washington Center
07:25AM 36.3631 -76.2214 19° North 459 528 35,000  Level Washington Center
07:26AM 36.4864 -76.1681 20° North 459 528 35,000  Level Washington Center
07:27AM 36.6033 -76.1147 19° North 459 528 35,000  Level Washington Center
07:28AM 36.7247 -76.0611 20° North 453 521 35,000  Level Washington Center
07:29AM 36.8439 -76.0072 18° North 453 521 35,000 -60 Level Washington Center
07:30AM 36.9836 -75.9508 20° North 462 532 34,900 -60 Descending Washington Center
07:31AM 37.0964 -75.8992 19° North 462 532 34,900  Level Washington Center
07:32AM 37.2133 -75.8475 19° North 456 525 34,900  Level Washington Center
07:33AM 37.3325 -75.7956 20° North 451 519 35,000  Climbing Washington Center
07:34AM 37.4494 -75.7408 19° North 446 513 35,000  Level Washington Center
07:35AM 37.5683 -75.6889 19° North 446 513 35,000  Level Washington Center
07:36AM 37.6872 -75.6364 20° North 446 513 35,000  Level Washington Center
07:37AM 37.8039 -75.5839 20° North 446 513 35,000 -60 Level Washington Center
07:38AM 37.9186 -75.5311 19° North 446 513 34,900  Descending Washington Center
07:39AM 38.0375 -75.4783 26° Northeast 446 513 35,000  Climbing Washington Center
07:40AM 38.1481 -75.4094 26° Northeast 446 513 34,900  Descending Washington Center
07:41AM 38.2625 -75.3378 27° Northeast 446 513 35,000  Climbing Washington Center
07:42AM 38.3708 -75.2686 27° Northeast 440 506 35,000  Level Washington Center
07:43AM 38.4811 -75.1964 27° Northeast 435 501 35,000  Level Washington Center
07:44AM 38.5933 -75.1242 26° Northeast 435 501 35,000 -60 Level Washington Center
07:45AM 38.7056 -75.0542 27° Northeast 447 514 34,900  Descending Washington Center
07:46AM 38.8200 -74.9789 26° Northeast 447 514 35,000 -900 Climbing Washington Center
07:47AM 38.9364 -74.9058 27° Northeast 447 514 33,200 -2,040 Descending Washington Center
07:48AM 39.0506 -74.8297 35° Northeast 447 514 31,000 -2,220 Descending Washington Center
07:49AM 39.1603 -74.7297 40° Northeast 455 524 28,700 -2,340 Descending Washington Center
07:50AM 39.2594 -74.6211 39° Northeast 461 531 26,500 -2,280 Descending Washington Center
07:51AM 39.3586 -74.5178 40° Northeast 466 536 24,300 -2,160 Descending Washington Center
07:53AM 39.5217 -74.3394 41° Northeast 451 519 20,300 -1,860 Descending New York Center
07:54AM 39.6167 -74.2339 39° Northeast 426 490 19,000 -1,440 Descending New York Center
07:55AM 39.6961 -74.1514 41° Northeast 406 467 17,500 -1,800 Descending New York Center
07:56AM 39.7758 -74.0606 36° Northeast 394 453 15,400 -2,280 Descending New York Center
07:57AM 39.8703 -73.9706 30° Northeast 384 442 13,000 -2,220 Descending New York Center
07:58AM 39.9553 -73.9067 27° Northeast 361 415 11,100 -1,020 Descending New York Center
07:59AM 40.0339 -73.8533 35° Northeast 330 380 11,000 -120 Descending New York Center
08:00AM 40.1022 -73.7911 327° Northwest 297 342 10,900 -840 Descending New York Center
08:01AM 40.1694 -73.8486 336° Northwest 250 288 9,400 -1,500 Descending New York Center
08:02AM 40.2392 -73.8897 358° North 260 299 7,900 -1,560 Descending New York Center
08:03AM 40.3142 -73.8931 356° North 266 306 6,400 -1,500 Descending New York Center
08:04AM 40.3889 -73.8992 354° North 272 313 5,000 -1,320 Descending New York Center
08:05AM 40.4492 -73.9075 27° Northeast 232 267 3,800 -1,020 Descending New York Center
08:06AM 40.4958 -73.8767 31° Northeast 194 223 3,000 -900 Descending New York Center
08:07AM 40.5500 -73.8333 37° Northeast 176 203 1,900 -900 Descending New York TRACON
08:08AM 40.5833 -73.8000 21° North 152 175 1,100 -780 Descending New York TRACON
08:09AM 40.6167 -73.7833 35° Northeast 129 148 300 3,420 Descending New York TRACON
08:11AM 40.6703 -73.7342 35° Northeast 141 162 11,000 6,060 Climbing New York Center